Time;durP1;ratioP1;P1;durP2;ratioP2;P2;SDS_P1;SDS_P2;PMS_P1;PMS_P2;Temp;Humidity;BMP_temperature;BMP_pressure;BME280_temperature;BME280_humidity;BME280_pressure;Samples;Min_cycle;Max_cycle;Signal;HPM_P1;HPM_P2
2023/07/20 00:01:20;;;;;;;;;;;21.40;83.20;;;;;;7568752;19;19914;-75
2023/07/20 00:03:55;;;;;;;;;;;21.40;83.10;;;;;;7561566;19;19915;-80
2023/07/20 00:06:27;;;;;;;;;;;21.30;81.70;;;;;;7585412;19;19925;-74
2023/07/20 00:09:05;;;;;;;;;;;21.30;82.50;;;;;;7569162;19;19963;-77
2023/07/20 00:11:38;;;;;;;;;;;21.40;82.40;;;;;;7573495;19;19940;-78
2023/07/20 00:14:10;;;;;;;;;;;21.40;81.50;;;;;;7563281;19;19921;-78
2023/07/20 00:16:43;;;;;;;;;;;21.40;81.10;;;;;;7565113;19;19911;-77
2023/07/20 00:19:16;;;;;;;;;;;21.30;80.60;;;;;;7566084;19;20022;-79
2023/07/20 00:21:52;;;;;;;;;;;21.30;80.10;;;;;;7577477;19;19922;-80
2023/07/20 00:24:25;;;;;;;;;;;21.30;79.70;;;;;;7573155;19;19926;-74
2023/07/20 00:26:57;;;;;;;;;;;21.30;79.80;;;;;;7565397;19;19919;-77
2023/07/20 00:29:30;;;;;;;;;;;21.30;79.50;;;;;;7551112;19;19922;-74
2023/07/20 00:32:04;;;;;;;;;;;21.30;79.80;;;;;;7559116;19;19948;-77
2023/07/20 00:34:40;;;;;;;;;;;21.40;80.50;;;;;;7568577;19;20330;-77
2023/07/20 00:37:13;;;;;;;;;;;21.40;80.80;;;;;;7582460;19;19915;-79
2023/07/20 00:39:46;;;;;;;;;;;21.30;81.00;;;;;;7580784;19;19922;-75
2023/07/20 00:42:18;;;;;;;;;;;21.30;80.50;;;;;;7554181;19;20027;-80
2023/07/20 00:44:50;;;;;;;;;;;21.30;81.60;;;;;;7569418;19;21059;-77
2023/07/20 00:47:22;;;;;;;;;;;21.20;81.90;;;;;;7577635;19;20002;-79
2023/07/20 00:49:55;;;;;;;;;;;21.20;82.00;;;;;;7577842;19;19950;-77
2023/07/20 00:52:28;;;;;;;;;;;21.10;82.60;;;;;;7600107;19;19947;-78
2023/07/20 00:55:03;;;;;;;;;;;21.10;82.40;;;;;;7577234;19;19930;-77
2023/07/20 00:57:36;;;;;;;;;;;21.10;83.40;;;;;;7583681;19;19943;-74
2023/07/20 01:00:11;;;;;;;;;;;21.10;84.40;;;;;;7589909;19;19919;-78
2023/07/20 01:02:43;;;;;;;;;;;21.10;84.40;;;;;;7597244;19;19923;-77
2023/07/20 01:05:17;;;;;;;;;;;21.10;84.60;;;;;;7608179;19;20432;-78
2023/07/20 01:08:20;;;;;;;;;;;21.10;83.70;;;;;;7614356;19;19954;-77
2023/07/20 01:10:56;;;;;;;;;;;21.00;83.80;;;;;;7609514;19;19926;-78
2023/07/20 01:13:29;;;;;;;;;;;21.00;84.90;;;;;;7599629;19;19923;-79
2023/07/20 01:16:02;;;;;;;;;;;20.90;91.10;;;;;;7603228;19;20539;-74
2023/07/20 01:18:34;;;;;;;;;;;20.90;86.80;;;;;;7597660;19;19919;-75
2023/07/20 01:21:10;;;;;;;;;;;20.90;86.90;;;;;;7598633;19;19975;-78
2023/07/20 01:24:09;;;;;;;;;;;21.00;86.70;;;;;;7609984;19;19918;-77
2023/07/20 01:27:10;;;;;;;;;;;20.90;89.30;;;;;;7609730;19;20438;-77
2023/07/20 01:30:03;;;;;;;;;;;20.80;89.00;;;;;;7608080;19;19923;-77
2023/07/20 01:32:36;;;;;;;;;;;20.70;90.60;;;;;;7605082;19;19975;-78
2023/07/20 01:35:14;;;;;;;;;;;20.60;90.20;;;;;;7598449;19;19931;-79
2023/07/20 01:37:47;;;;;;;;;;;20.50;91.00;;;;;;7612790;19;19923;-78
2023/07/20 01:40:19;;;;;;;;;;;20.60;90.30;;;;;;7609862;19;19954;-79
2023/07/20 01:42:53;;;;;;;;;;;20.70;89.90;;;;;;7617502;19;19930;-78
2023/07/20 01:45:27;;;;;;;;;;;20.70;89.40;;;;;;7603586;19;20019;-78
2023/07/20 01:48:01;;;;;;;;;;;20.60;89.50;;;;;;7608737;19;19986;-77
2023/07/20 01:50:34;;;;;;;;;;;20.60;89.70;;;;;;7611085;19;19951;-77
2023/07/20 01:53:06;;;;;;;;;;;20.50;90.10;;;;;;7612799;19;19926;-78
2023/07/20 01:55:38;;;;;;;;;;;20.60;90.30;;;;;;7605055;19;19923;-77
2023/07/20 01:58:11;;;;;;;;;;;20.40;89.70;;;;;;7599858;19;20002;-77
2023/07/20 02:00:44;;;;;;;;;;;20.50;89.70;;;;;;7607034;19;19929;-79
2023/07/20 02:03:16;;;;;;;;;;;20.30;90.00;;;;;;7604846;19;19927;-79
2023/07/20 02:05:51;;;;;;;;;;;20.30;90.20;;;;;;7606621;19;19923;-78
2023/07/20 02:08:25;;;;;;;;;;;20.30;90.10;;;;;;7610911;19;19919;-79
2023/07/20 02:11:01;;;;;;;;;;;20.30;90.10;;;;;;7602735;19;21998;-79
2023/07/20 02:13:37;;;;;;;;;;;20.30;90.30;;;;;;7608797;19;19922;-77
2023/07/20 02:16:11;;;;;;;;;;;20.30;90.40;;;;;;7606955;19;19918;-74
2023/07/20 02:18:43;;;;;;;;;;;20.30;90.40;;;;;;7601896;19;19925;-78
2023/07/20 02:21:16;;;;;;;;;;;20.30;90.30;;;;;;7601305;19;19937;-79
2023/07/20 02:23:48;;;;;;;;;;;20.20;90.40;;;;;;7604432;19;19946;-78
2023/07/20 02:26:23;;;;;;;;;;;20.20;90.70;;;;;;7609884;19;20732;-77
2023/07/20 02:28:58;;;;;;;;;;;20.10;90.60;;;;;;7609000;19;19926;-77
2023/07/20 02:31:30;;;;;;;;;;;20.20;90.60;;;;;;7609059;19;19990;-79
2023/07/20 02:34:03;;;;;;;;;;;20.40;90.20;;;;;;7614089;19;19945;-76
2023/07/20 02:36:35;;;;;;;;;;;20.30;90.30;;;;;;7613819;19;19991;-77
2023/07/20 02:39:10;;;;;;;;;;;20.40;90.40;;;;;;7619083;19;19930;-78
2023/07/20 02:41:44;;;;;;;;;;;20.30;90.70;;;;;;7615229;19;20014;-79
2023/07/20 02:44:19;;;;;;;;;;;20.20;90.40;;;;;;7616662;19;19926;-77
2023/07/20 02:46:57;;;;;;;;;;;20.20;90.30;;;;;;7618743;19;19926;-77
2023/07/20 02:49:29;;;;;;;;;;;20.20;90.70;;;;;;7627437;19;19951;-78
2023/07/20 02:52:02;;;;;;;;;;;20.20;90.30;;;;;;7626265;19;19990;-77
2023/07/20 02:54:34;;;;;;;;;;;20.20;90.30;;;;;;7608707;19;19922;-79
2023/07/20 02:57:06;;;;;;;;;;;20.10;90.10;;;;;;7620599;19;19955;-75
2023/07/20 02:59:38;;;;;;;;;;;20.20;90.00;;;;;;7624855;19;19947;-78
2023/07/20 03:02:11;;;;;;;;;;;20.10;89.60;;;;;;7622882;19;19914;-77
2023/07/20 03:04:43;;;;;;;;;;;20.10;90.00;;;;;;7620415;19;19922;-75
2023/07/20 03:07:15;;;;;;;;;;;20.00;90.00;;;;;;7611371;19;19929;-77
2023/07/20 03:09:52;;;;;;;;;;;19.90;91.60;;;;;;7600575;19;21387;-77
2023/07/20 03:12:25;;;;;;;;;;;19.70;93.50;;;;;;7590213;19;19919;-77
2023/07/20 03:14:58;;;;;;;;;;;19.60;94.50;;;;;;7576677;19;19952;-76
2023/07/20 03:17:30;;;;;;;;;;;19.30;95.50;;;;;;7581260;19;19968;-76
2023/07/20 03:20:03;;;;;;;;;;;18.90;97.00;;;;;;7585012;19;19925;-73
2023/07/20 03:22:41;;;;;;;;;;;18.70;97.60;;;;;;7586916;19;19999;-74
2023/07/20 03:25:13;;;;;;;;;;;18.40;98.80;;;;;;7591731;19;19979;-77
2023/07/20 03:27:46;;;;;;;;;;;18.40;99.80;;;;;;7596341;19;20687;-76
2023/07/20 03:30:18;;;;;;;;;;;18.40;99.90;;;;;;7596383;19;19944;-73
2023/07/20 03:32:50;;;;;;;;;;;18.30;99.90;;;;;;7581957;19;19919;-74
2023/07/20 03:35:23;;;;;;;;;;;18.10;99.90;;;;;;7592697;19;19950;-76
2023/07/20 03:37:55;;;;;;;;;;;18.00;99.90;;;;;;7584880;19;19926;-76
2023/07/20 03:40:30;;;;;;;;;;;18.00;99.90;;;;;;7601769;19;19931;-78
2023/07/20 03:43:03;;;;;;;;;;;17.90;99.90;;;;;;7609223;19;19926;-77
2023/07/20 03:45:37;;;;;;;;;;;18.00;99.90;;;;;;7594401;19;19922;-75
2023/07/20 03:48:10;;;;;;;;;;;17.90;99.90;;;;;;7585400;19;19922;-73
2023/07/20 03:50:48;;;;;;;;;;;17.70;99.90;;;;;;7576887;19;20423;-78
2023/07/20 03:53:21;;;;;;;;;;;17.70;99.90;;;;;;7589191;19;19918;-77
2023/07/20 03:55:54;;;;;;;;;;;17.60;99.90;;;;;;7576099;19;19922;-80
2023/07/20 03:58:26;;;;;;;;;;;17.50;99.90;;;;;;7590081;19;20395;-74
2023/07/20 04:00:58;;;;;;;;;;;17.40;99.90;;;;;;7579190;19;19938;-79
2023/07/20 04:03:31;;;;;;;;;;;17.50;99.90;;;;;;7590736;19;20370;-75
2023/07/20 04:06:04;;;;;;;;;;;17.60;99.90;;;;;;7602195;19;19911;-77
2023/07/20 04:08:37;;;;;;;;;;;17.70;99.90;;;;;;7576096;19;19911;-80
2023/07/20 04:11:12;;;;;;;;;;;17.70;99.90;;;;;;7592200;19;20556;-77
2023/07/20 04:13:45;;;;;;;;;;;17.70;99.90;;;;;;7600779;19;19926;-79
2023/07/20 04:16:19;;;;;;;;;;;17.70;99.90;;;;;;7588458;19;19918;-78
2023/07/20 04:18:56;;;;;;;;;;;17.70;99.90;;;;;;7567445;19;19923;-76
2023/07/20 04:21:29;;;;;;;;;;;17.80;99.90;;;;;;7589947;19;19923;-78
2023/07/20 04:24:02;;;;;;;;;;;17.70;99.90;;;;;;7583601;19;19926;-74
2023/07/20 04:26:35;;;;;;;;;;;17.70;99.90;;;;;;7591821;19;19919;-79
2023/07/20 04:29:08;;;;;;;;;;;17.80;99.90;;;;;;7565708;19;21405;-77
2023/07/20 04:31:45;;;;;;;;;;;17.70;99.90;;;;;;7563255;19;20891;-73
2023/07/20 04:34:18;;;;;;;;;;;17.70;99.90;;;;;;7565375;19;20411;-78
2023/07/20 04:36:51;;;;;;;;;;;17.60;99.90;;;;;;7539871;19;19929;-78
2023/07/20 04:39:23;;;;;;;;;;;17.60;99.90;;;;;;7569992;19;19919;-74
2023/07/20 04:42:08;;;;;;;;;;;17.80;99.90;;;;;;7554935;19;19994;-83
2023/07/20 04:44:41;;;;;;;;;;;17.80;99.90;;;;;;7560847;19;22094;-74
2023/07/20 04:47:14;;;;;;;;;;;17.80;99.90;;;;;;7561705;19;19915;-78
2023/07/20 04:49:48;;;;;;;;;;;17.70;99.90;;;;;;7578788;19;19922;-79
2023/07/20 04:52:21;;;;;;;;;;;17.80;99.90;;;;;;7563634;19;19931;-79
2023/07/20 04:55:09;;;;;;;;;;;17.70;99.90;;;;;;7555523;19;20282;-78
2023/07/20 04:57:42;;;;;;;;;;;17.80;99.90;;;;;;7526533;19;20469;-78
2023/07/20 05:00:17;;;;;;;;;;;17.80;99.90;;;;;;7566595;19;19997;-78
2023/07/20 05:02:50;;;;;;;;;;;17.80;99.90;;;;;;7554065;19;19955;-78
2023/07/20 05:05:23;;;;;;;;;;;17.80;99.90;;;;;;7574333;19;19937;-78
2023/07/20 05:07:55;;;;;;;;;;;17.80;99.90;;;;;;7555711;19;19923;-78
2023/07/20 05:10:28;;;;;;;;;;;18.00;99.90;;;;;;7514949;19;20238;-78
2023/07/20 05:13:04;;;;;;;;;;;17.90;99.90;;;;;;7529540;19;19956;-78
2023/07/20 05:15:38;;;;;;;;;;;17.90;99.90;;;;;;7559940;19;20277;-73
2023/07/20 05:18:19;;;;;;;;;;;17.80;99.90;;;;;;7587275;19;19930;-79
2023/07/20 05:20:54;;;;;;;;;;;17.80;99.90;;;;;;7593809;19;19923;-78
2023/07/20 05:23:28;;;;;;;;;;;17.80;99.90;;;;;;7589713;19;19914;-77
2023/07/20 05:26:02;;;;;;;;;;;17.80;99.90;;;;;;7566757;19;20729;-78
2023/07/20 05:28:34;;;;;;;;;;;17.80;99.90;;;;;;7571373;19;20915;-78
2023/07/20 05:31:07;;;;;;;;;;;17.80;99.90;;;;;;7540382;19;21116;-78
2023/07/20 05:33:39;;;;;;;;;;;17.80;99.90;;;;;;7539922;19;20555;-78
2023/07/20 05:36:11;;;;;;;;;;;17.90;99.90;;;;;;7587965;19;19919;-78
2023/07/20 05:38:43;;;;;;;;;;;17.90;99.90;;;;;;7593366;19;19923;-79
2023/07/20 05:41:16;;;;;;;;;;;18.00;99.90;;;;;;7593099;19;20368;-78
2023/07/20 05:43:48;;;;;;;;;;;18.10;99.90;;;;;;7592889;19;19922;-78
2023/07/20 05:46:20;;;;;;;;;;;18.00;99.90;;;;;;7590776;19;19972;-78
2023/07/20 05:48:53;;;;;;;;;;;18.00;99.90;;;;;;7595036;19;19934;-78
2023/07/20 05:51:25;;;;;;;;;;;18.00;99.90;;;;;;7596428;19;19922;-78
2023/07/20 05:53:57;;;;;;;;;;;18.00;99.90;;;;;;7596120;19;19922;-78
2023/07/20 05:56:30;;;;;;;;;;;18.20;99.90;;;;;;7573753;19;20043;-79
2023/07/20 05:59:02;;;;;;;;;;;18.10;99.90;;;;;;7599787;19;19930;-78
2023/07/20 06:01:34;;;;;;;;;;;18.20;99.90;;;;;;7604014;19;19930;-78
2023/07/20 06:04:07;;;;;;;;;;;18.20;99.90;;;;;;7585359;19;20336;-78
2023/07/20 06:06:40;;;;;;;;;;;18.30;99.90;;;;;;7586998;19;19919;-78
2023/07/20 06:09:23;;;;;;;;;;;18.40;99.90;;;;;;7586109;19;19919;-78
2023/07/20 06:11:56;;;;;;;;;;;18.40;99.90;;;;;;7582575;19;19918;-78
2023/07/20 06:14:28;;;;;;;;;;;18.30;99.90;;;;;;7592494;19;19925;-78
2023/07/20 06:17:00;;;;;;;;;;;18.40;99.90;;;;;;7589299;19;19919;-77
2023/07/20 06:19:33;;;;;;;;;;;18.50;99.90;;;;;;7594206;19;20569;-78
2023/07/20 06:22:05;;;;;;;;;;;18.50;99.90;;;;;;7592262;19;19923;-77
2023/07/20 06:24:37;;;;;;;;;;;18.50;99.90;;;;;;7579292;19;19933;-77
2023/07/20 06:27:10;;;;;;;;;;;18.50;99.90;;;;;;7580535;19;20349;-78
2023/07/20 06:29:42;;;;;;;;;;;18.60;99.90;;;;;;7590146;19;19921;-78
2023/07/20 06:32:14;;;;;;;;;;;18.60;99.90;;;;;;7577179;19;19918;-78
2023/07/20 06:34:47;;;;;;;;;;;18.60;99.90;;;;;;7577540;19;19911;-78
2023/07/20 06:37:20;;;;;;;;;;;18.70;99.90;;;;;;7581497;19;20564;-78
2023/07/20 06:39:52;;;;;;;;;;;18.80;99.90;;;;;;7587283;19;19926;-78
2023/07/20 06:42:27;;;;;;;;;;;18.80;99.90;;;;;;7581006;19;20328;-79
2023/07/20 06:45:20;;;;;;;;;;;18.80;99.90;;;;;;7585263;19;19922;-78
2023/07/20 06:47:52;;;;;;;;;;;18.80;99.90;;;;;;7579475;19;19919;-78
2023/07/20 06:50:25;;;;;;;;;;;18.70;99.90;;;;;;7544906;19;19926;-78
2023/07/20 06:52:59;;;;;;;;;;;18.80;99.90;;;;;;7564462;19;19926;-77
2023/07/20 06:55:31;;;;;;;;;;;18.80;99.90;;;;;;7575203;19;20289;-78
2023/07/20 06:58:12;;;;;;;;;;;18.90;99.90;;;;;;7587432;19;20349;-78
2023/07/20 07:00:45;;;;;;;;;;;18.90;99.90;;;;;;7590066;19;19941;-78
2023/07/20 07:03:17;;;;;;;;;;;18.90;99.90;;;;;;7567761;19;19956;-78
2023/07/20 07:05:50;;;;;;;;;;;18.90;99.90;;;;;;7565636;19;19922;-78
2023/07/20 07:08:22;;;;;;;;;;;19.10;99.90;;;;;;7570120;19;20497;-78
2023/07/20 07:10:54;;;;;;;;;;;19.30;99.90;;;;;;7564254;19;19938;-78
2023/07/20 07:13:27;;;;;;;;;;;19.40;99.90;;;;;;7569688;19;20289;-78
2023/07/20 07:15:59;;;;;;;;;;;19.50;99.90;;;;;;7566988;19;20002;-78
2023/07/20 07:18:31;;;;;;;;;;;19.50;99.90;;;;;;7584721;19;19962;-77
2023/07/20 07:21:03;;;;;;;;;;;19.40;99.90;;;;;;7589387;19;19963;-77
2023/07/20 07:23:35;;;;;;;;;;;19.60;99.90;;;;;;7584210;19;19923;-78
2023/07/20 07:26:07;;;;;;;;;;;19.60;99.90;;;;;;7585999;19;19968;-77
2023/07/20 07:28:39;;;;;;;;;;;19.70;99.90;;;;;;7589298;19;19956;-78
2023/07/20 07:31:14;;;;;;;;;;;19.70;99.90;;;;;;7597161;19;19926;-78
2023/07/20 07:33:46;;;;;;;;;;;19.80;99.90;;;;;;7598017;19;19911;-77
2023/07/20 07:36:19;;;;;;;;;;;19.80;99.90;;;;;;7593856;19;20726;-77
2023/07/20 07:38:52;;;;;;;;;;;19.90;99.90;;;;;;7596860;19;19923;-78
2023/07/20 07:41:27;;;;;;;;;;;20.10;99.90;;;;;;7591064;19;19941;-77
2023/07/20 07:43:59;;;;;;;;;;;20.30;99.90;;;;;;7578477;19;19921;-78
2023/07/20 07:46:31;;;;;;;;;;;20.50;99.40;;;;;;7597088;19;19923;-77
2023/07/20 07:49:04;;;;;;;;;;;20.60;99.90;;;;;;7603109;19;21565;-77
2023/07/20 07:51:36;;;;;;;;;;;20.60;98.80;;;;;;7602922;19;19929;-77
2023/07/20 07:54:08;;;;;;;;;;;20.60;99.40;;;;;;7591564;19;19951;-77
2023/07/20 07:56:40;;;;;;;;;;;20.60;99.50;;;;;;7601394;19;19923;-77
2023/07/20 07:59:13;;;;;;;;;;;20.60;99.90;;;;;;7603667;19;19930;-78
2023/07/20 08:01:45;;;;;;;;;;;20.70;99.90;;;;;;7603035;19;19925;-77
2023/07/20 08:04:18;;;;;;;;;;;20.80;99.90;;;;;;7605326;19;19923;-77
2023/07/20 08:06:50;;;;;;;;;;;20.70;99.90;;;;;;7606158;19;20226;-78
2023/07/20 08:09:23;;;;;;;;;;;20.70;99.90;;;;;;7596572;19;19922;-80
2023/07/20 08:11:55;;;;;;;;;;;20.80;99.90;;;;;;7596464;19;20551;-78
2023/07/20 08:14:27;;;;;;;;;;;20.70;99.90;;;;;;7603545;19;20642;-77
2023/07/20 08:16:59;;;;;;;;;;;20.70;99.90;;;;;;7592585;19;19986;-76
2023/07/20 08:19:32;;;;;;;;;;;20.80;99.90;;;;;;7604564;19;19951;-76
2023/07/20 08:22:04;;;;;;;;;;;20.80;99.80;;;;;;7602499;19;19962;-77
2023/07/20 08:24:39;;;;;;;;;;;20.80;99.80;;;;;;7595413;19;19914;-77
2023/07/20 08:27:11;;;;;;;;;;;21.00;99.70;;;;;;7590654;19;20503;-76
2023/07/20 08:29:44;;;;;;;;;;;21.20;98.90;;;;;;7599078;19;19927;-77
2023/07/20 08:32:16;;;;;;;;;;;21.30;98.30;;;;;;7586736;19;19933;-77
2023/07/20 08:34:48;;;;;;;;;;;21.40;98.50;;;;;;7591940;19;19922;-77
2023/07/20 08:37:20;;;;;;;;;;;21.50;98.30;;;;;;7597965;19;19959;-77
2023/07/20 08:39:52;;;;;;;;;;;21.50;98.00;;;;;;7602183;19;19922;-77
2023/07/20 08:42:25;;;;;;;;;;;21.60;95.50;;;;;;7587420;19;19911;-77
2023/07/20 08:44:57;;;;;;;;;;;21.60;96.20;;;;;;7569816;19;20530;-77
2023/07/20 08:47:29;;;;;;;;;;;21.70;94.80;;;;;;7592347;19;19922;-78
2023/07/20 08:50:02;;;;;;;;;;;21.70;94.80;;;;;;7578680;19;20891;-78
2023/07/20 08:52:34;;;;;;;;;;;22.00;95.40;;;;;;7582758;19;19927;-77
2023/07/20 08:55:07;;;;;;;;;;;22.20;94.00;;;;;;7592626;19;19922;-78
2023/07/20 08:57:41;;;;;;;;;;;22.10;92.60;;;;;;7592077;19;20641;-76
2023/07/20 09:00:14;;;;;;;;;;;22.20;91.90;;;;;;7591807;19;20585;-77
2023/07/20 09:02:48;;;;;;;;;;;22.30;90.80;;;;;;7590539;19;19933;-76
2023/07/20 09:05:20;;;;;;;;;;;22.50;91.10;;;;;;7590208;19;19929;-77
2023/07/20 09:07:53;;;;;;;;;;;22.50;90.10;;;;;;7592270;19;19929;-77
2023/07/20 09:10:25;;;;;;;;;;;22.40;91.00;;;;;;7572881;19;19946;-77
2023/07/20 09:12:57;;;;;;;;;;;22.40;87.70;;;;;;7574812;19;20339;-77
2023/07/20 09:15:30;;;;;;;;;;;22.40;89.70;;;;;;7578936;19;19923;-77
2023/07/20 09:18:03;;;;;;;;;;;22.20;89.10;;;;;;7576840;19;19946;-78
2023/07/20 09:20:36;;;;;;;;;;;22.20;90.50;;;;;;7570765;19;19919;-77
2023/07/20 09:23:08;;;;;;;;;;;22.30;87.00;;;;;;7566831;19;20535;-77
2023/07/20 09:25:40;;;;;;;;;;;22.20;87.30;;;;;;7577510;19;19942;-76
2023/07/20 09:28:12;;;;;;;;;;;22.30;87.80;;;;;;7574892;19;19915;-76
2023/07/20 09:30:45;;;;;;;;;;;22.30;87.20;;;;;;7571981;19;20002;-77
2023/07/20 09:33:24;;;;;;;;;;;22.30;87.40;;;;;;7568410;19;20473;-76
2023/07/20 09:36:02;;;;;;;;;;;22.40;84.80;;;;;;7589298;19;19930;-77
2023/07/20 09:38:55;;;;;;;;;;;22.50;83.90;;;;;;7573671;19;19930;-77
2023/07/20 09:41:30;;;;;;;;;;;22.40;84.20;;;;;;7584799;19;20431;-77
2023/07/20 09:44:15;;;;;;;;;;;22.40;84.70;;;;;;7586956;19;21344;-77
2023/07/20 09:46:51;;;;;;;;;;;22.70;84.30;;;;;;7601044;19;19922;-77
2023/07/20 09:49:26;;;;;;;;;;;22.90;82.70;;;;;;7584313;19;19922;-77
2023/07/20 09:52:02;;;;;;;;;;;23.00;82.20;;;;;;7593529;19;19922;-77
2023/07/20 09:54:36;;;;;;;;;;;23.00;80.80;;;;;;7587968;19;20002;-77
2023/07/20 09:57:12;;;;;;;;;;;23.20;82.10;;;;;;7581656;19;19923;-77
2023/07/20 09:59:44;;;;;;;;;;;23.30;81.90;;;;;;7571979;19;20530;-76
2023/07/20 10:02:20;;;;;;;;;;;23.40;81.30;;;;;;7568724;19;20452;-77
2023/07/20 10:04:53;;;;;;;;;;;23.30;79.20;;;;;;7591723;19;19938;-77
2023/07/20 10:07:27;;;;;;;;;;;23.30;81.20;;;;;;7575562;19;19994;-78
2023/07/20 10:10:01;;;;;;;;;;;23.50;81.20;;;;;;7589849;19;19946;-76
2023/07/20 10:12:35;;;;;;;;;;;23.60;79.50;;;;;;7579832;19;19934;-77
2023/07/20 10:15:11;;;;;;;;;;;23.50;77.00;;;;;;7578556;19;19926;-78
2023/07/20 10:17:49;;;;;;;;;;;23.30;77.80;;;;;;7577497;19;19959;-77
2023/07/20 10:20:22;;;;;;;;;;;23.50;77.60;;;;;;7575481;19;19942;-78
2023/07/20 10:22:55;;;;;;;;;;;23.90;79.70;;;;;;7580940;19;20711;-80
2023/07/20 10:25:29;;;;;;;;;;;23.90;75.60;;;;;;7557423;19;20458;-77
2023/07/20 10:28:01;;;;;;;;;;;23.90;75.60;;;;;;7576443;19;19918;-78
2023/07/20 10:30:34;;;;;;;;;;;24.30;75.00;;;;;;7582462;19;20018;-77
2023/07/20 10:33:07;;;;;;;;;;;25.20;74.30;;;;;;7594728;19;19915;-76
2023/07/20 10:35:57;;;;;;;;;;;25.10;75.70;;;;;;7588241;19;19918;-78
2023/07/20 10:38:42;;;;;;;;;;;24.70;74.00;;;;;;7574991;19;21307;-77
2023/07/20 10:41:21;;;;;;;;;;;24.10;74.20;;;;;;7589836;19;19922;-78
2023/07/20 10:44:07;;;;;;;;;;;24.00;75.40;;;;;;7587160;19;20576;-77
2023/07/20 10:46:40;;;;;;;;;;;24.50;76.60;;;;;;7594426;19;19939;-77
2023/07/20 10:49:14;;;;;;;;;;;25.40;74.80;;;;;;7591464;19;19921;-77
2023/07/20 10:51:56;;;;;;;;;;;25.80;72.50;;;;;;7590900;19;20009;-76
2023/07/20 10:54:28;;;;;;;;;;;25.60;72.00;;;;;;7583856;19;19934;-78
2023/07/20 10:57:00;;;;;;;;;;;;;;;;;;7587198;19;19915;-76
2023/07/20 10:59:32;;;;;;;;;;;25.30;73.80;;;;;;7584460;19;19963;-77
2023/07/20 11:02:08;;;;;;;;;;;26.00;71.20;;;;;;7591617;19;20363;-77
2023/07/20 11:04:42;;;;;;;;;;;26.30;71.70;;;;;;7583731;19;19926;-77
2023/07/20 11:07:37;;;;;;;;;;;26.40;71.90;;;;;;7592957;19;20005;-79
2023/07/20 11:10:13;;;;;;;;;;;26.00;68.80;;;;;;7593376;19;19926;-78
2023/07/20 11:13:04;;;;;;;;;;;25.80;69.10;;;;;;7584023;19;19923;-77
2023/07/20 11:15:47;;;;;;;;;;;26.00;70.80;;;;;;7592080;19;19942;-77
2023/07/20 11:18:20;;;;;;;;;;;26.30;70.80;;;;;;7591148;19;20024;-77
2023/07/20 11:20:53;;;;;;;;;;;26.50;72.10;;;;;;7551631;19;19923;-77
2023/07/20 11:23:25;;;;;;;;;;;26.10;69.80;;;;;;7582068;19;20423;-78
2023/07/20 11:25:59;;;;;;;;;;;25.80;68.90;;;;;;7586609;19;19914;-77
2023/07/20 11:28:31;;;;;;;;;;;25.70;70.30;;;;;;7589314;19;19919;-78
2023/07/20 11:31:03;;;;;;;;;;;25.50;70.00;;;;;;7553448;19;21085;-77
2023/07/20 11:33:36;;;;;;;;;;;25.20;69.60;;;;;;7561035;19;19963;-78
2023/07/20 11:36:08;;;;;;;;;;;24.90;69.80;;;;;;7544924;19;20759;-77
2023/07/20 11:38:45;;;;;;;;;;;24.70;70.50;;;;;;7558705;19;19918;-76
2023/07/20 11:41:18;;;;;;;;;;;24.80;72.40;;;;;;7583946;19;19915;-77
2023/07/20 11:43:50;;;;;;;;;;;25.10;70.40;;;;;;7574603;19;20276;-78
2023/07/20 11:46:23;;;;;;;;;;;25.70;70.80;;;;;;7538013;19;19963;-77
2023/07/20 11:48:59;;;;;;;;;;;25.60;67.80;;;;;;7566854;19;19925;-78
2023/07/20 11:51:32;;;;;;;;;;;25.00;70.20;;;;;;7580091;19;19919;-77
2023/07/20 11:54:06;;;;;;;;;;;25.20;70.20;;;;;;7568653;19;19940;-77
2023/07/20 11:56:41;;;;;;;;;;;25.60;71.00;;;;;;7576947;19;19918;-76
2023/07/20 11:59:13;;;;;;;;;;;25.70;69.90;;;;;;7583241;19;20085;-77
2023/07/20 12:01:45;;;;;;;;;;;25.90;70.30;;;;;;7560410;19;19966;-77
2023/07/20 12:04:17;;;;;;;;;;;26.50;71.10;;;;;;7578404;19;19922;-78
2023/07/20 12:06:49;;;;;;;;;;;26.70;68.10;;;;;;7581188;19;19937;-77
2023/07/20 12:09:22;;;;;;;;;;;26.80;68.30;;;;;;7580005;19;19919;-77
2023/07/20 12:11:57;;;;;;;;;;;26.90;64.30;;;;;;7565534;19;20353;-78
2023/07/20 12:14:29;;;;;;;;;;;27.00;66.30;;;;;;7550305;19;20339;-78
2023/07/20 12:17:01;;;;;;;;;;;27.00;66.50;;;;;;7544230;19;19922;-77
2023/07/20 12:19:37;;;;;;;;;;;27.50;66.60;;;;;;7588952;19;19994;-77
2023/07/20 12:22:11;;;;;;;;;;;27.70;62.70;;;;;;7581067;19;19966;-77
2023/07/20 12:24:43;;;;;;;;;;;27.70;63.30;;;;;;7585113;19;19918;-77
2023/07/20 12:27:16;;;;;;;;;;;27.80;62.20;;;;;;7562103;19;19923;-78
2023/07/20 12:29:50;;;;;;;;;;;27.40;63.10;;;;;;7564727;19;20435;-77
2023/07/20 12:32:23;;;;;;;;;;;27.00;62.50;;;;;;7573703;19;21473;-77
2023/07/20 12:34:55;;;;;;;;;;;27.30;64.80;;;;;;7590666;19;19923;-77
2023/07/20 12:37:27;;;;;;;;;;;27.70;65.30;;;;;;7554576;19;19930;-77
2023/07/20 12:39:59;;;;;;;;;;;28.10;61.40;;;;;;7580950;19;19927;-77
2023/07/20 12:42:32;;;;;;;;;;;28.40;63.10;;;;;;7568162;19;20532;-77
2023/07/20 12:45:05;;;;;;;;;;;28.80;62.10;;;;;;7574925;19;19915;-77
2023/07/20 12:47:38;;;;;;;;;;;28.30;60.40;;;;;;7558796;19;19922;-76
2023/07/20 12:50:10;;;;;;;;;;;27.90;60.40;;;;;;7568166;19;19919;-77
2023/07/20 12:52:43;;;;;;;;;;;28.10;60.40;;;;;;7563891;19;19918;-77
2023/07/20 12:55:15;;;;;;;;;;;28.20;61.50;;;;;;7598303;19;20608;-79
2023/07/20 12:57:47;;;;;;;;;;;28.30;60.50;;;;;;7589489;19;19919;-76
2023/07/20 13:00:22;;;;;;;;;;;28.20;60.30;;;;;;7593364;19;20403;-76
2023/07/20 13:02:55;;;;;;;;;;;27.90;60.20;;;;;;7603880;19;19926;-76
2023/07/20 13:05:31;;;;;;;;;;;27.80;60.00;;;;;;7584297;19;19931;-76
2023/07/20 13:08:07;;;;;;;;;;;27.80;63.20;;;;;;7591395;19;19919;-76
2023/07/20 13:10:43;;;;;;;;;;;28.10;61.50;;;;;;7582173;19;19918;-76
2023/07/20 13:13:15;;;;;;;;;;;28.60;61.90;;;;;;7565844;19;19927;-76
2023/07/20 13:15:47;;;;;;;;;;;29.00;60.70;;;;;;7560758;19;19923;-77
2023/07/20 13:18:20;;;;;;;;;;;28.50;60.60;;;;;;7584222;19;19918;-77
2023/07/20 13:20:52;;;;;;;;;;;28.70;59.50;;;;;;7596999;19;20254;-77
2023/07/20 13:23:24;;;;;;;;;;;28.50;59.20;;;;;;7600388;19;19930;-76
2023/07/20 13:25:56;;;;;;;;;;;28.40;60.10;;;;;;7599643;19;20440;-77
2023/07/20 13:28:28;;;;;;;;;;;28.70;58.80;;;;;;7594796;19;20015;-77
2023/07/20 13:31:01;;;;;;;;;;;28.90;58.90;;;;;;7566531;19;20597;-79
2023/07/20 13:33:33;;;;;;;;;;;28.50;58.80;;;;;;7585956;19;19918;-77
2023/07/20 13:36:10;;;;;;;;;;;28.20;59.40;;;;;;7591198;19;19929;-75
2023/07/20 13:38:42;;;;;;;;;;;28.30;60.90;;;;;;7572254;19;19923;-76
2023/07/20 13:41:17;;;;;;;;;;;28.70;59.10;;;;;;7554876;19;19922;-76
2023/07/20 13:43:51;;;;;;;;;;;28.60;59.00;;;;;;7589797;19;20014;-78
2023/07/20 13:46:24;;;;;;;;;;;28.40;58.70;;;;;;7580126;19;19944;-76
2023/07/20 13:48:59;;;;;;;;;;;28.30;59.50;;;;;;7582903;19;20345;-77
2023/07/20 13:51:32;;;;;;;;;;;28.10;58.10;;;;;;7596192;19;20084;-77
2023/07/20 13:54:04;;;;;;;;;;;28.00;58.70;;;;;;7587034;19;19927;-77
2023/07/20 13:56:39;;;;;;;;;;;28.00;59.20;;;;;;7592522;19;20726;-77
2023/07/20 13:59:13;;;;;;;;;;;27.80;58.90;;;;;;7588376;19;19929;-77
2023/07/20 14:01:46;;;;;;;;;;;28.00;61.20;;;;;;7584750;19;19925;-76
2023/07/20 14:04:19;;;;;;;;;;;28.20;60.20;;;;;;7587594;19;19930;-77
2023/07/20 14:06:51;;;;;;;;;;;28.40;58.20;;;;;;7578310;19;21280;-76
2023/07/20 14:09:24;;;;;;;;;;;28.30;57.50;;;;;;7585098;19;19927;-77
2023/07/20 14:11:56;;;;;;;;;;;28.30;60.10;;;;;;7594972;19;19926;-77
2023/07/20 14:14:31;;;;;;;;;;;28.80;59.20;;;;;;7584073;19;19918;-77
2023/07/20 14:17:03;;;;;;;;;;;28.50;59.90;;;;;;7606676;19;20248;-77
2023/07/20 14:19:37;;;;;;;;;;;28.50;59.50;;;;;;7593931;19;19926;-76
2023/07/20 14:22:09;;;;;;;;;;;27.90;57.40;;;;;;7605364;19;19926;-77
2023/07/20 14:24:43;;;;;;;;;;;28.60;59.70;;;;;;7605240;19;19978;-77
2023/07/20 14:27:16;;;;;;;;;;;28.90;56.80;;;;;;7597869;19;19933;-76
2023/07/20 14:29:48;;;;;;;;;;;29.10;57.00;;;;;;7597721;19;19922;-76
2023/07/20 14:32:22;;;;;;;;;;;28.80;57.20;;;;;;7601534;19;19930;-78
2023/07/20 14:34:55;;;;;;;;;;;28.80;58.30;;;;;;7594586;19;19921;-76
2023/07/20 14:37:27;;;;;;;;;;;28.40;57.80;;;;;;7598639;19;19978;-78
2023/07/20 14:40:00;;;;;;;;;;;28.10;56.40;;;;;;7590900;19;19915;-79
2023/07/20 14:42:33;;;;;;;;;;;28.40;56.60;;;;;;7599919;19;19952;-81
2023/07/20 14:45:05;;;;;;;;;;;28.40;56.70;;;;;;7589269;19;19974;-77
2023/07/20 14:47:39;;;;;;;;;;;28.50;57.30;;;;;;7582015;19;19922;-77
2023/07/20 14:50:14;;;;;;;;;;;28.80;56.00;;;;;;7548046;19;19923;-83
2023/07/20 14:52:46;;;;;;;;;;;28.90;57.20;;;;;;7620660;19;20066;-78
2023/07/20 14:55:20;;;;;;;;;;;29.40;56.10;;;;;;7611712;19;19982;-77
2023/07/20 14:57:52;;;;;;;;;;;29.80;55.50;;;;;;7622299;19;19922;-78